Avalon, Texas
Current Conditions -  °F | °C
As of 2:55 AM on Thursday 23 Oct 2014 (Local Time) from KJWY Reporting Station
Scattered Clouds Scattered Clouds  
Wind Chill: 65°   Ceiling: Unl
Heat Index: 65°   Visibility: 10mi
Dew Point: 54°   Wind: 0mph
Humidity: 67%   Direction: NA
Pressure: 30.14"   Gusts: NA
Location:  32.21°N, 96.79°W
Report Text: KJWY 230755Z AUTO 00000KT 10SM SCT120 19/12 A3014 RMK AO2 T01850123
Loading
Personal Weather Stations






























Interactive Weather Map
Tropical Storm Tracking
New forecast layout! Learn more

10-Day Weather Forecast

Advertisements
Track Severe Weather on mobile